sensor_id;sensor_type;location;lat;lon;timestamp;P1;durP1;ratioP1;P2;durP2;ratioP2
44824;SDS011;30542;47.928;2.138;2023-03-26T00:02:32;7.82;;;2.15;;
44824;SDS011;30542;47.928;2.138;2023-03-26T00:07:32;6.00;;;2.30;;
44824;SDS011;30542;47.928;2.138;2023-03-26T00:12:34;4.97;;;2.30;;
44824;SDS011;30542;47.928;2.138;2023-03-26T00:17:34;5.03;;;2.30;;
44824;SDS011;30542;47.928;2.138;2023-03-26T00:22:34;5.95;;;2.13;;
44824;SDS011;30542;47.928;2.138;2023-03-26T00:27:35;4.35;;;1.67;;
44824;SDS011;30542;47.928;2.138;2023-03-26T00:32:35;4.97;;;2.10;;
44824;SDS011;30542;47.928;2.138;2023-03-26T00:37:36;4.20;;;1.67;;
44824;SDS011;30542;47.928;2.138;2023-03-26T00:42:37;5.43;;;2.07;;
44824;SDS011;30542;47.928;2.138;2023-03-26T00:47:37;4.35;;;1.13;;
44824;SDS011;30542;47.928;2.138;2023-03-26T00:52:39;3.45;;;1.50;;
44824;SDS011;30542;47.928;2.138;2023-03-26T00:57:44;2.65;;;1.05;;
44824;SDS011;30542;47.928;2.138;2023-03-26T01:02:44;3.05;;;1.40;;
44824;SDS011;30542;47.928;2.138;2023-03-26T01:07:45;4.23;;;1.67;;
44824;SDS011;30542;47.928;2.138;2023-03-26T01:12:45;4.67;;;1.20;;
44824;SDS011;30542;47.928;2.138;2023-03-26T01:17:45;2.30;;;1.10;;
44824;SDS011;30542;47.928;2.138;2023-03-26T01:22:48;3.00;;;0.90;;
44824;SDS011;30542;47.928;2.138;2023-03-26T01:27:53;2.95;;;0.80;;
44824;SDS011;30542;47.928;2.138;2023-03-26T01:33:00;4.10;;;1.02;;
44824;SDS011;30542;47.928;2.138;2023-03-26T01:38:05;3.23;;;1.20;;
44824;SDS011;30542;47.928;2.138;2023-03-26T01:48:29;2.75;;;0.75;;
44824;SDS011;30542;47.928;2.138;2023-03-26T01:53:33;2.85;;;0.88;;
44824;SDS011;30542;47.928;2.138;2023-03-26T01:59:02;2.35;;;1.00;;
44824;SDS011;30542;47.928;2.138;2023-03-26T02:09:24;1.73;;;0.70;;
44824;SDS011;30542;47.928;2.138;2023-03-26T02:14:29;2.45;;;0.68;;
44824;SDS011;30542;47.928;2.138;2023-03-26T02:19:30;3.63;;;0.70;;
44824;SDS011;30542;47.928;2.138;2023-03-26T02:24:30;2.47;;;0.50;;
44824;SDS011;30542;47.928;2.138;2023-03-26T02:29:30;3.27;;;0.70;;
44824;SDS011;30542;47.928;2.138;2023-03-26T02:34:31;2.03;;;0.65;;
44824;SDS011;30542;47.928;2.138;2023-03-26T02:39:31;1.92;;;0.50;;
44824;SDS011;30542;47.928;2.138;2023-03-26T02:44:32;1.25;;;0.50;;
44824;SDS011;30542;47.928;2.138;2023-03-26T02:49:33;2.50;;;0.50;;
44824;SDS011;30542;47.928;2.138;2023-03-26T02:54:33;2.83;;;0.60;;
44824;SDS011;30542;47.928;2.138;2023-03-26T02:59:34;1.55;;;0.60;;
44824;SDS011;30542;47.928;2.138;2023-03-26T03:04:34;1.17;;;0.45;;
44824;SDS011;30542;47.928;2.138;2023-03-26T03:09:35;1.75;;;0.40;;
44824;SDS011;30542;47.928;2.138;2023-03-26T03:14:35;2.03;;;0.75;;
44824;SDS011;30542;47.928;2.138;2023-03-26T03:19:36;1.27;;;0.32;;
44824;SDS011;30542;47.928;2.138;2023-03-26T03:24:37;2.40;;;0.70;;
44824;SDS011;30542;47.928;2.138;2023-03-26T03:29:38;1.63;;;0.50;;
44824;SDS011;30542;47.928;2.138;2023-03-26T03:34:40;2.40;;;0.30;;
44824;SDS011;30542;47.928;2.138;2023-03-26T03:39:41;3.08;;;0.43;;
44824;SDS011;30542;47.928;2.138;2023-03-26T03:44:41;1.57;;;0.43;;
44824;SDS011;30542;47.928;2.138;2023-03-26T03:49:42;1.50;;;0.40;;
44824;SDS011;30542;47.928;2.138;2023-03-26T03:54:42;1.70;;;0.50;;
44824;SDS011;30542;47.928;2.138;2023-03-26T03:59:43;3.20;;;0.67;;
44824;SDS011;30542;47.928;2.138;2023-03-26T04:04:43;1.55;;;0.35;;
44824;SDS011;30542;47.928;2.138;2023-03-26T04:09:45;1.80;;;0.50;;
44824;SDS011;30542;47.928;2.138;2023-03-26T04:14:45;1.45;;;0.40;;
44824;SDS011;30542;47.928;2.138;2023-03-26T04:19:46;1.90;;;0.73;;
44824;SDS011;30542;47.928;2.138;2023-03-26T04:24:47;1.48;;;0.40;;
44824;SDS011;30542;47.928;2.138;2023-03-26T04:29:48;1.98;;;0.40;;
44824;SDS011;30542;47.928;2.138;2023-03-26T04:34:49;2.55;;;0.40;;
44824;SDS011;30542;47.928;2.138;2023-03-26T04:39:49;2.10;;;0.30;;
44824;SDS011;30542;47.928;2.138;2023-03-26T04:44:50;1.73;;;0.30;;
44824;SDS011;30542;47.928;2.138;2023-03-26T04:49:51;1.90;;;0.40;;
44824;SDS011;30542;47.928;2.138;2023-03-26T04:54:51;1.90;;;0.43;;
44824;SDS011;30542;47.928;2.138;2023-03-26T04:59:51;2.03;;;0.30;;
44824;SDS011;30542;47.928;2.138;2023-03-26T05:04:52;2.00;;;0.43;;
44824;SDS011;30542;47.928;2.138;2023-03-26T05:09:52;2.00;;;0.40;;
44824;SDS011;30542;47.928;2.138;2023-03-26T05:14:53;1.87;;;0.40;;
44824;SDS011;30542;47.928;2.138;2023-03-26T05:19:53;1.40;;;0.30;;
44824;SDS011;30542;47.928;2.138;2023-03-26T05:24:53;2.35;;;0.40;;
44824;SDS011;30542;47.928;2.138;2023-03-26T05:29:58;1.90;;;0.27;;
44824;SDS011;30542;47.928;2.138;2023-03-26T05:34:59;1.55;;;0.35;;
44824;SDS011;30542;47.928;2.138;2023-03-26T05:40:00;1.55;;;0.45;;
44824;SDS011;30542;47.928;2.138;2023-03-26T05:45:01;2.23;;;0.47;;
44824;SDS011;30542;47.928;2.138;2023-03-26T05:50:02;2.28;;;0.40;;
44824;SDS011;30542;47.928;2.138;2023-03-26T05:55:02;2.30;;;0.50;;
44824;SDS011;30542;47.928;2.138;2023-03-26T06:00:04;3.65;;;0.85;;
44824;SDS011;30542;47.928;2.138;2023-03-26T06:05:07;2.42;;;0.85;;
44824;SDS011;30542;47.928;2.138;2023-03-26T06:10:09;2.05;;;0.40;;
44824;SDS011;30542;47.928;2.138;2023-03-26T06:15:09;2.30;;;0.63;;
44824;SDS011;30542;47.928;2.138;2023-03-26T06:20:10;3.03;;;0.40;;
44824;SDS011;30542;47.928;2.138;2023-03-26T06:25:11;2.03;;;0.50;;
44824;SDS011;30542;47.928;2.138;2023-03-26T06:30:11;2.53;;;0.75;;
44824;SDS011;30542;47.928;2.138;2023-03-26T06:35:12;2.25;;;0.60;;
44824;SDS011;30542;47.928;2.138;2023-03-26T06:40:12;1.53;;;0.33;;
44824;SDS011;30542;47.928;2.138;2023-03-26T06:45:13;2.67;;;0.38;;
44824;SDS011;30542;47.928;2.138;2023-03-26T06:50:13;2.97;;;0.55;;
44824;SDS011;30542;47.928;2.138;2023-03-26T06:55:14;3.70;;;0.63;;
44824;SDS011;30542;47.928;2.138;2023-03-26T07:00:14;4.97;;;1.10;;
44824;SDS011;30542;47.928;2.138;2023-03-26T07:05:15;3.20;;;0.60;;
44824;SDS011;30542;47.928;2.138;2023-03-26T07:10:15;2.90;;;0.70;;
44824;SDS011;30542;47.928;2.138;2023-03-26T07:15:16;2.13;;;0.50;;
44824;SDS011;30542;47.928;2.138;2023-03-26T07:20:17;3.00;;;0.47;;
44824;SDS011;30542;47.928;2.138;2023-03-26T07:25:17;2.17;;;0.50;;
44824;SDS011;30542;47.928;2.138;2023-03-26T07:46:29;10.98;;;1.65;;
44824;SDS011;30542;47.928;2.138;2023-03-26T07:51:33;6.78;;;0.75;;
44824;SDS011;30542;47.928;2.138;2023-03-26T07:56:35;6.38;;;0.65;;
44824;SDS011;30542;47.928;2.138;2023-03-26T08:06:39;6.95;;;1.25;;
44824;SDS011;30542;47.928;2.138;2023-03-26T08:17:34;4.88;;;0.75;;
44824;SDS011;30542;47.928;2.138;2023-03-26T08:22:41;4.95;;;0.98;;
44824;SDS011;30542;47.928;2.138;2023-03-26T08:27:55;4.20;;;0.50;;
44824;SDS011;30542;47.928;2.138;2023-03-26T08:38:11;8.52;;;1.45;;
44824;SDS011;30542;47.928;2.138;2023-03-26T09:04:33;21.42;;;4.25;;
44824;SDS011;30542;47.928;2.138;2023-03-26T09:15:05;17.48;;;3.92;;
44824;SDS011;30542;47.928;2.138;2023-03-26T09:20:32;18.25;;;4.68;;
44824;SDS011;30542;47.928;2.138;2023-03-26T09:42:34;12.68;;;2.50;;
44824;SDS011;30542;47.928;2.138;2023-03-26T09:58:48;10.82;;;2.85;;
44824;SDS011;30542;47.928;2.138;2023-03-26T10:09:12;9.55;;;2.67;;
44824;SDS011;30542;47.928;2.138;2023-03-26T10:14:30;7.88;;;2.00;;
44824;SDS011;30542;47.928;2.138;2023-03-26T10:19:44;7.75;;;1.90;;
44824;SDS011;30542;47.928;2.138;2023-03-26T10:25:00;7.25;;;1.92;;
44824;SDS011;30542;47.928;2.138;2023-03-26T10:52:18;6.75;;;1.80;;
44824;SDS011;30542;47.928;2.138;2023-03-26T11:02:39;9.07;;;1.40;;
44824;SDS011;30542;47.928;2.138;2023-03-26T11:07:48;5.85;;;1.60;;
44824;SDS011;30542;47.928;2.138;2023-03-26T11:18:29;4.32;;;1.10;;
44824;SDS011;30542;47.928;2.138;2023-03-26T11:23:54;9.60;;;1.37;;
44824;SDS011;30542;47.928;2.138;2023-03-26T11:39:51;5.03;;;1.40;;
44824;SDS011;30542;47.928;2.138;2023-03-26T11:44:59;3.97;;;1.08;;
44824;SDS011;30542;47.928;2.138;2023-03-26T11:50:14;4.40;;;1.30;;
44824;SDS011;30542;47.928;2.138;2023-03-26T11:55:19;5.60;;;0.90;;
44824;SDS011;30542;47.928;2.138;2023-03-26T12:00:20;5.25;;;1.00;;
44824;SDS011;30542;47.928;2.138;2023-03-26T12:05:27;5.25;;;1.00;;
44824;SDS011;30542;47.928;2.138;2023-03-26T12:10:36;2.92;;;0.82;;
44824;SDS011;30542;47.928;2.138;2023-03-26T12:15:41;3.28;;;1.02;;
44824;SDS011;30542;47.928;2.138;2023-03-26T12:20:42;3.60;;;0.85;;
44824;SDS011;30542;47.928;2.138;2023-03-26T12:25:43;3.33;;;0.75;;
44824;SDS011;30542;47.928;2.138;2023-03-26T12:30:51;3.17;;;0.98;;
44824;SDS011;30542;47.928;2.138;2023-03-26T12:41:19;2.72;;;0.50;;
44824;SDS011;30542;47.928;2.138;2023-03-26T12:46:32;4.15;;;0.90;;
44824;SDS011;30542;47.928;2.138;2023-03-26T12:51:51;4.32;;;0.98;;
44824;SDS011;30542;47.928;2.138;2023-03-26T13:02:28;3.00;;;0.68;;
44824;SDS011;30542;47.928;2.138;2023-03-26T13:13:47;3.15;;;0.80;;
44824;SDS011;30542;47.928;2.138;2023-03-26T13:19:02;2.65;;;0.88;;
44824;SDS011;30542;47.928;2.138;2023-03-26T13:24:19;4.45;;;2.00;;
44824;SDS011;30542;47.928;2.138;2023-03-26T13:29:40;6.45;;;2.72;;
44824;SDS011;30542;47.928;2.138;2023-03-26T13:51:29;3.60;;;1.98;;
44824;SDS011;30542;47.928;2.138;2023-03-26T13:56:38;3.55;;;1.48;;
44824;SDS011;30542;47.928;2.138;2023-03-26T14:01:53;2.20;;;1.25;;
44824;SDS011;30542;47.928;2.138;2023-03-26T14:12:26;2.92;;;1.48;;
44824;SDS011;30542;47.928;2.138;2023-03-26T14:39:11;2.65;;;0.90;;
44824;SDS011;30542;47.928;2.138;2023-03-26T14:44:30;2.38;;;0.82;;
44824;SDS011;30542;47.928;2.138;2023-03-26T14:55:13;3.05;;;0.57;;
44824;SDS011;30542;47.928;2.138;2023-03-26T15:06:24;2.07;;;0.87;;
44824;SDS011;30542;47.928;2.138;2023-03-26T15:27:23;2.58;;;0.60;;
44824;SDS011;30542;47.928;2.138;2023-03-26T15:43:19;2.35;;;0.90;;
44824;SDS011;30542;47.928;2.138;2023-03-26T15:48:45;2.28;;;0.30;;
44824;SDS011;30542;47.928;2.138;2023-03-26T15:53:52;3.38;;;0.60;;
44824;SDS011;30542;47.928;2.138;2023-03-26T16:30:42;2.53;;;0.40;;
44824;SDS011;30542;47.928;2.138;2023-03-26T16:40:59;2.70;;;0.40;;
44824;SDS011;30542;47.928;2.138;2023-03-26T16:46:13;3.65;;;0.63;;
44824;SDS011;30542;47.928;2.138;2023-03-26T17:01:48;2.15;;;0.50;;
44824;SDS011;30542;47.928;2.138;2023-03-26T17:17:43;2.13;;;0.40;;
44824;SDS011;30542;47.928;2.138;2023-03-26T17:22:57;1.63;;;0.22;;
44824;SDS011;30542;47.928;2.138;2023-03-26T17:33:32;2.08;;;0.30;;
44824;SDS011;30542;47.928;2.138;2023-03-26T17:48:59;2.35;;;0.40;;
44824;SDS011;30542;47.928;2.138;2023-03-26T17:54:12;0.93;;;0.30;;
44824;SDS011;30542;47.928;2.138;2023-03-26T17:59:19;1.90;;;0.30;;
44824;SDS011;30542;47.928;2.138;2023-03-26T18:04:27;0.88;;;0.25;;
44824;SDS011;30542;47.928;2.138;2023-03-26T18:15:12;3.45;;;0.40;;
44824;SDS011;30542;47.928;2.138;2023-03-26T18:20:22;0.80;;;0.25;;
44824;SDS011;30542;47.928;2.138;2023-03-26T18:25:29;1.58;;;0.47;;
44824;SDS011;30542;47.928;2.138;2023-03-26T18:30:32;0.53;;;0.30;;
44824;SDS011;30542;47.928;2.138;2023-03-26T18:35:49;1.75;;;0.30;;
44824;SDS011;30542;47.928;2.138;2023-03-26T18:40:52;1.75;;;0.40;;
44824;SDS011;30542;47.928;2.138;2023-03-26T18:45:54;0.52;;;0.20;;
44824;SDS011;30542;47.928;2.138;2023-03-26T18:50:55;0.90;;;0.30;;
44824;SDS011;30542;47.928;2.138;2023-03-26T18:56:00;0.77;;;0.20;;
44824;SDS011;30542;47.928;2.138;2023-03-26T19:01:01;2.20;;;0.30;;
44824;SDS011;30542;47.928;2.138;2023-03-26T19:06:08;1.02;;;0.28;;
44824;SDS011;30542;47.928;2.138;2023-03-26T19:11:11;1.58;;;0.40;;
44824;SDS011;30542;47.928;2.138;2023-03-26T19:21:23;1.17;;;0.20;;
44824;SDS011;30542;47.928;2.138;2023-03-26T19:26:24;1.55;;;0.30;;
44824;SDS011;30542;47.928;2.138;2023-03-26T19:31:32;1.27;;;0.30;;
44824;SDS011;30542;47.928;2.138;2023-03-26T19:36:33;0.85;;;0.35;;
44824;SDS011;30542;47.928;2.138;2023-03-26T19:41:39;0.57;;;0.30;;
44824;SDS011;30542;47.928;2.138;2023-03-26T19:46:45;1.38;;;0.35;;
44824;SDS011;30542;47.928;2.138;2023-03-26T19:51:46;0.50;;;0.20;;
44824;SDS011;30542;47.928;2.138;2023-03-26T19:56:52;1.88;;;0.30;;
44824;SDS011;30542;47.928;2.138;2023-03-26T20:01:52;1.20;;;0.20;;
44824;SDS011;30542;47.928;2.138;2023-03-26T20:06:52;1.07;;;0.20;;
44824;SDS011;30542;47.928;2.138;2023-03-26T20:11:53;0.70;;;0.30;;
44824;SDS011;30542;47.928;2.138;2023-03-26T20:16:53;0.80;;;0.30;;
44824;SDS011;30542;47.928;2.138;2023-03-26T20:21:53;0.63;;;0.20;;
44824;SDS011;30542;47.928;2.138;2023-03-26T20:26:54;1.45;;;0.30;;
44824;SDS011;30542;47.928;2.138;2023-03-26T20:31:54;0.40;;;0.20;;
44824;SDS011;30542;47.928;2.138;2023-03-26T20:36:55;0.50;;;0.20;;
44824;SDS011;30542;47.928;2.138;2023-03-26T20:41:56;0.20;;;0.10;;
44824;SDS011;30542;47.928;2.138;2023-03-26T20:46:56;0.52;;;0.20;;
44824;SDS011;30542;47.928;2.138;2023-03-26T20:51:57;0.52;;;0.20;;
44824;SDS011;30542;47.928;2.138;2023-03-26T20:56:59;0.85;;;0.20;;
44824;SDS011;30542;47.928;2.138;2023-03-26T21:02:01;0.70;;;0.30;;
44824;SDS011;30542;47.928;2.138;2023-03-26T21:07:01;0.40;;;0.20;;
44824;SDS011;30542;47.928;2.138;2023-03-26T21:12:07;0.77;;;0.20;;
44824;SDS011;30542;47.928;2.138;2023-03-26T21:17:17;0.98;;;0.20;;
44824;SDS011;30542;47.928;2.138;2023-03-26T21:33:02;1.13;;;0.30;;
44824;SDS011;30542;47.928;2.138;2023-03-26T21:38:04;0.40;;;0.32;;
44824;SDS011;30542;47.928;2.138;2023-03-26T21:43:05;0.63;;;0.30;;
44824;SDS011;30542;47.928;2.138;2023-03-26T21:48:06;0.25;;;0.13;;
44824;SDS011;30542;47.928;2.138;2023-03-26T21:53:06;0.52;;;0.13;;
44824;SDS011;30542;47.928;2.138;2023-03-26T22:04:10;0.40;;;0.20;;
44824;SDS011;30542;47.928;2.138;2023-03-26T22:09:19;0.25;;;0.20;;
44824;SDS011;30542;47.928;2.138;2023-03-26T22:14:20;0.30;;;0.20;;
44824;SDS011;30542;47.928;2.138;2023-03-26T22:19:21;0.73;;;0.28;;
44824;SDS011;30542;47.928;2.138;2023-03-26T22:24:21;0.45;;;0.20;;
44824;SDS011;30542;47.928;2.138;2023-03-26T22:29:22;0.70;;;0.30;;
44824;SDS011;30542;47.928;2.138;2023-03-26T22:34:22;0.38;;;0.20;;
44824;SDS011;30542;47.928;2.138;2023-03-26T22:39:23;0.35;;;0.20;;
44824;SDS011;30542;47.928;2.138;2023-03-26T22:44:24;0.20;;;0.20;;
44824;SDS011;30542;47.928;2.138;2023-03-26T22:49:24;0.32;;;0.17;;
44824;SDS011;30542;47.928;2.138;2023-03-26T22:54:29;0.28;;;0.10;;
44824;SDS011;30542;47.928;2.138;2023-03-26T22:59:29;0.37;;;0.20;;
44824;SDS011;30542;47.928;2.138;2023-03-26T23:04:30;0.40;;;0.20;;
44824;SDS011;30542;47.928;2.138;2023-03-26T23:09:31;0.32;;;0.20;;
44824;SDS011;30542;47.928;2.138;2023-03-26T23:14:31;0.30;;;0.20;;
44824;SDS011;30542;47.928;2.138;2023-03-26T23:19:32;0.30;;;0.10;;
44824;SDS011;30542;47.928;2.138;2023-03-26T23:24:33;1.35;;;0.20;;
44824;SDS011;30542;47.928;2.138;2023-03-26T23:29:33;1.03;;;0.20;;
44824;SDS011;30542;47.928;2.138;2023-03-26T23:34:34;0.13;;;0.10;;
44824;SDS011;30542;47.928;2.138;2023-03-26T23:39:34;0.50;;;0.10;;
44824;SDS011;30542;47.928;2.138;2023-03-26T23:44:35;0.30;;;0.20;;
44824;SDS011;30542;47.928;2.138;2023-03-26T23:49:38;0.43;;;0.10;;
44824;SDS011;30542;47.928;2.138;2023-03-26T23:54:38;0.60;;;0.20;;
44824;SDS011;30542;47.928;2.138;2023-03-26T23:59:41;0.40;;;0.20;;
